Time;durP1;ratioP1;P1;durP2;ratioP2;P2;SDS_P1;SDS_P2;PMS_P1;PMS_P2;Temp;Humidity;BMP_temperature;BMP_pressure;BME280_temperature;BME280_humidity;BME280_pressure;Samples;Min_cycle;Max_cycle;Signal;HPM_P1;HPM_P2
2020/12/21 00:01:50;;;;;;;6.60;6.00;;;21.80;48.50;;;;;;5117455;28;20173;-70
2020/12/21 00:04:16;;;;;;;7.77;5.13;;;21.90;48.70;;;;;;5116853;28;20228;-68
2020/12/21 00:06:42;;;;;;;8.37;5.70;;;21.90;48.80;;;;;;5115734;28;20491;-68
2020/12/21 00:09:07;;;;;;;7.00;6.13;;;21.80;48.70;;;;;;5117135;28;20161;-70
2020/12/21 00:11:40;;;;;;;6.00;5.40;;;21.80;48.60;;;;;;5115760;28;20520;-70
2020/12/21 00:14:08;;;;;;;6.60;5.60;;;21.80;48.70;;;;;;5116922;28;20658;-70
2020/12/21 00:16:51;;;;;;;5.07;4.63;;;21.80;48.70;;;;;;5115675;28;20415;-69
2020/12/21 00:19:18;;;;;;;7.40;5.73;;;21.80;48.70;;;;;;5115642;28;20407;-70
2020/12/21 00:21:46;;;;;;;5.87;5.27;;;21.80;48.60;;;;;;5116877;28;20406;-69
2020/12/21 00:24:11;;;;;;;6.03;5.40;;;21.80;48.60;;;;;;5117063;28;20407;-70
2020/12/21 00:26:37;;;;;;;6.17;5.57;;;21.80;48.50;;;;;;5116756;28;20838;-69
2020/12/21 00:29:03;;;;;;;6.20;4.67;;;21.80;48.50;;;;;;5116655;28;20260;-70
2020/12/21 00:31:31;;;;;;;6.10;5.50;;;21.80;48.60;;;;;;5116657;28;20202;-69
2020/12/21 00:33:58;;;;;;;7.10;6.40;;;21.80;48.40;;;;;;5116549;28;20438;-70
2020/12/21 00:36:24;;;;;;;5.83;5.23;;;21.70;48.20;;;;;;5116618;28;20536;-70
2020/12/21 00:38:50;;;;;;;6.67;6.00;;;21.70;48.10;;;;;;5115278;28;20966;-69
2020/12/21 00:41:18;;;;;;;6.63;5.93;;;21.70;48.70;;;;;;5116612;28;20187;-70
2020/12/21 00:43:45;;;;;;;6.40;5.53;;;21.70;48.20;;;;;;5116268;28;20462;-70
2020/12/21 00:46:19;;;;;;;5.90;5.10;;;21.70;48.30;;;;;;5116328;27;20976;-69
2020/12/21 00:48:46;;;;;;;7.47;5.93;;;21.70;48.00;;;;;;5116350;28;20403;-70
2020/12/21 00:51:13;;;;;;;6.70;5.53;;;21.70;47.90;;;;;;5116321;28;20398;-70
2020/12/21 00:53:39;;;;;;;5.77;5.00;;;21.70;47.90;;;;;;5116142;28;20433;-70
2020/12/21 00:56:06;;;;;;;6.57;5.77;;;21.70;48.00;;;;;;5116215;28;20442;-70
2020/12/21 00:58:33;;;;;;;5.70;5.20;;;21.70;48.00;;;;;;5116748;28;20426;-70
2020/12/21 01:01:00;;;;;;;7.60;5.17;;;21.60;47.80;;;;;;5115397;27;20399;-69
2020/12/21 01:03:26;;;;;;;6.30;5.10;;;21.60;47.90;;;;;;5116223;28;20419;-69
2020/12/21 01:05:54;;;;;;;5.27;4.77;;;21.60;48.00;;;;;;5115975;28;20437;-69
2020/12/21 01:08:20;;;;;;;6.53;5.63;;;21.60;47.90;;;;;;5115869;28;20231;-70
2020/12/21 01:10:45;;;;;;;5.87;4.90;;;21.60;48.40;;;;;;5116004;28;20428;-70
2020/12/21 01:13:11;;;;;;;6.30;5.53;;;21.60;47.80;;;;;;5115938;28;20429;-70
2020/12/21 01:15:37;;;;;;;6.60;5.70;;;21.60;47.80;;;;;;5115926;28;20165;-70
2020/12/21 01:18:02;;;;;;;6.10;5.20;;;21.60;47.90;;;;;;5116079;28;20177;-69
2020/12/21 01:20:28;;;;;;;5.20;4.70;;;21.60;48.00;;;;;;5115701;28;20180;-69
2020/12/21 01:22:53;;;;;;;5.73;5.23;;;21.60;47.90;;;;;;5114370;28;20224;-69
2020/12/21 01:25:19;;;;;;;5.67;5.07;;;21.60;47.80;;;;;;5115885;28;20197;-70
2020/12/21 01:27:45;;;;;;;6.27;5.67;;;21.60;47.90;;;;;;5115614;28;20195;-70
2020/12/21 01:30:11;;;;;;;6.40;5.80;;;21.60;48.10;;;;;;5115637;28;20175;-70
2020/12/21 01:32:37;;;;;;;6.13;4.80;;;21.60;48.10;;;;;;5115501;28;20283;-69
2020/12/21 01:35:03;;;;;;;5.00;4.50;;;21.50;48.10;;;;;;5115674;28;20893;-70
2020/12/21 01:37:28;;;;;;;5.83;4.67;;;21.50;48.20;;;;;;5115587;28;20194;-70
2020/12/21 01:39:54;;;;;;;5.83;5.10;;;21.50;48.30;;;;;;5115368;28;20248;-70
2020/12/21 01:42:20;;;;;;;5.50;4.57;;;21.50;48.30;;;;;;5115298;28;20607;-70
2020/12/21 01:44:49;;;;;;;5.20;4.60;;;21.50;48.30;;;;;;5113926;28;20446;-70
2020/12/21 01:47:16;;;;;;;6.70;5.30;;;21.50;48.30;;;;;;5115439;28;20212;-69
2020/12/21 01:49:42;;;;;;;5.20;4.70;;;21.50;48.20;;;;;;5115175;28;20485;-70
2020/12/21 01:52:09;;;;;;;8.83;6.10;;;21.50;48.20;;;;;;5115101;27;20426;-70
2020/12/21 01:54:34;;;;;;;5.57;5.07;;;21.50;48.00;;;;;;5115363;28;20460;-69
2020/12/21 01:57:00;;;;;;;6.40;5.70;;;21.50;48.00;;;;;;5115249;28;20826;-69
2020/12/21 01:59:26;;;;;;;5.67;5.07;;;21.50;47.90;;;;;;5114956;28;20161;-69
2020/12/21 02:01:53;;;;;;;6.47;5.63;;;21.50;48.00;;;;;;5115231;28;20169;-69
2020/12/21 02:04:22;;;;;;;6.03;5.47;;;21.50;47.90;;;;;;5113486;28;20525;-69
2020/12/21 02:06:48;;;;;;;5.93;5.30;;;21.50;47.80;;;;;;5114713;28;20562;-70
2020/12/21 02:09:14;;;;;;;8.23;6.37;;;21.50;47.90;;;;;;5115113;28;20760;-70
2020/12/21 02:11:41;;;;;;;5.50;5.00;;;21.50;47.90;;;;;;5115514;28;20925;-69
2020/12/21 02:14:07;;;;;;;5.60;4.93;;;21.50;48.00;;;;;;5113534;28;20464;-70
2020/12/21 02:16:33;;;;;;;5.60;4.93;;;21.50;48.00;;;;;;5114572;28;20436;-70
2020/12/21 02:18:59;;;;;;;5.83;5.13;;;21.50;48.00;;;;;;5113348;28;20418;-70
2020/12/21 02:21:24;;;;;;;6.60;5.90;;;21.50;47.80;;;;;;5114550;28;20414;-69
2020/12/21 02:23:50;;;;;;;6.00;5.00;;;21.50;47.90;;;;;;5114464;28;20683;-70
2020/12/21 02:26:16;;;;;;;7.03;5.33;;;21.50;47.90;;;;;;5114356;28;20244;-69
2020/12/21 02:28:42;;;;;;;6.50;5.77;;;21.50;47.80;;;;;;5114472;28;20165;-69
2020/12/21 02:31:07;;;;;;;6.60;6.00;;;21.50;47.90;;;;;;5114352;28;20280;-70
2020/12/21 02:33:34;;;;;;;7.53;5.70;;;21.50;47.90;;;;;;5114258;28;20185;-69
2020/12/21 02:36:00;;;;;;;9.40;5.70;;;21.50;47.80;;;;;;5112971;28;20168;-69
2020/12/21 02:38:25;;;;;;;7.90;5.90;;;21.50;47.70;;;;;;5114183;28;20407;-69
2020/12/21 02:40:51;;;;;;;6.83;5.43;;;21.50;47.70;;;;;;5114399;28;20421;-70
2020/12/21 02:43:17;;;;;;;6.20;5.57;;;21.50;47.70;;;;;;5114085;28;20267;-70
2020/12/21 02:45:42;;;;;;;6.40;5.63;;;21.50;47.80;;;;;;5114258;28;20180;-70
2020/12/21 02:48:08;;;;;;;7.00;6.03;;;21.50;47.80;;;;;;5113874;28;20185;-69
2020/12/21 02:50:34;;;;;;;6.37;5.47;;;21.50;47.80;;;;;;5113969;28;20634;-70
2020/12/21 02:52:59;;;;;;;5.73;5.13;;;21.50;47.80;;;;;;5113884;28;20291;-69
2020/12/21 02:55:25;;;;;;;4.93;4.53;;;21.50;47.80;;;;;;5113922;28;20200;-70
2020/12/21 02:57:51;;;;;;;6.00;5.40;;;21.50;47.80;;;;;;5113837;28;20169;-70
2020/12/21 03:00:16;;;;;;;6.83;5.87;;;21.40;47.70;;;;;;5114102;28;20530;-69
2020/12/21 03:02:42;;;;;;;6.00;5.43;;;21.40;47.70;;;;;;5113738;28;20272;-69
2020/12/21 03:05:08;;;;;;;6.23;5.53;;;21.40;47.70;;;;;;5113741;28;20247;-70
2020/12/21 03:07:34;;;;;;;5.97;4.80;;;21.40;47.70;;;;;;5112381;28;20199;-70
2020/12/21 03:10:00;;;;;;;5.10;4.40;;;21.40;47.70;;;;;;5114552;28;20571;-70
2020/12/21 03:12:26;;;;;;;6.97;5.20;;;21.40;47.80;;;;;;5113611;28;20426;-70
2020/12/21 03:14:51;;;;;;;6.07;5.57;;;21.40;47.80;;;;;;5113612;28;20745;-70
2020/12/21 03:17:17;;;;;;;5.30;4.80;;;21.40;47.80;;;;;;5113635;28;20201;-70
2020/12/21 03:19:42;;;;;;;6.70;6.00;;;21.40;47.70;;;;;;5113589;28;20173;-70
2020/12/21 03:22:08;;;;;;;5.23;4.67;;;21.40;47.70;;;;;;5113411;28;20267;-70
2020/12/21 03:24:34;;;;;;;6.30;5.50;;;21.40;47.70;;;;;;5113226;28;20180;-70
2020/12/21 03:26:59;;;;;;;7.40;6.00;;;21.40;47.70;;;;;;5113433;28;20204;-70
2020/12/21 03:29:25;;;;;;;7.53;6.73;;;21.30;47.10;;;;;;5113544;28;20643;-70
2020/12/21 03:31:51;;;;;;;7.23;6.30;;;21.10;46.70;;;;;;5113475;28;20639;-69
2020/12/21 03:34:16;;;;;;;7.13;5.67;;;21.00;47.10;;;;;;5113456;28;20176;-70
2020/12/21 03:36:43;;;;;;;6.30;5.63;;;21.00;47.30;;;;;;5112110;28;20614;-70
2020/12/21 03:39:09;;;;;;;6.13;5.53;;;21.10;47.20;;;;;;5113421;28;20286;-69
2020/12/21 03:41:34;;;;;;;6.10;5.47;;;21.10;47.30;;;;;;5113309;28;20442;-70
2020/12/21 03:44:00;;;;;;;6.43;5.40;;;21.10;47.40;;;;;;5112483;28;20195;-70
2020/12/21 03:46:26;;;;;;;6.77;6.07;;;21.10;47.50;;;;;;5112653;28;20189;-69
2020/12/21 03:48:52;;;;;;;5.70;5.10;;;21.20;47.40;;;;;;5113357;28;20516;-70
2020/12/21 03:51:17;;;;;;;5.73;5.13;;;21.20;47.60;;;;;;5111993;28;20702;-70
2020/12/21 03:53:43;;;;;;;5.53;4.93;;;21.20;47.60;;;;;;5113156;28;20185;-70
2020/12/21 03:56:08;;;;;;;5.80;4.77;;;21.20;47.60;;;;;;5114034;28;20161;-69
2020/12/21 03:58:34;;;;;;;5.50;5.00;;;21.20;47.60;;;;;;5113205;28;20639;-70
2020/12/21 04:01:00;;;;;;;5.87;5.27;;;21.20;47.60;;;;;;5113195;28;20161;-70
2020/12/21 04:03:29;;;;;;;5.80;5.20;;;21.20;47.60;;;;;;5113057;28;20240;-70
2020/12/21 04:05:55;;;;;;;5.57;5.10;;;21.30;47.60;;;;;;5113038;28;20411;-69
2020/12/21 04:08:21;;;;;;;8.20;4.80;;;21.30;47.60;;;;;;5113278;28;20446;-69
2020/12/21 04:10:47;;;;;;;6.80;5.40;;;21.30;47.60;;;;;;5113089;28;20165;-70
2020/12/21 04:13:13;;;;;;;6.10;5.20;;;21.30;47.50;;;;;;5113223;28;20694;-69
2020/12/21 04:15:39;;;;;;;6.00;4.63;;;21.30;47.50;;;;;;5111806;28;20497;-69
2020/12/21 04:18:05;;;;;;;5.10;4.60;;;21.30;47.50;;;;;;5112986;28;20494;-70
2020/12/21 04:20:31;;;;;;;5.23;4.63;;;21.30;47.60;;;;;;5112982;28;20169;-69
2020/12/21 04:22:57;;;;;;;5.20;4.70;;;21.30;47.60;;;;;;5113114;28;20987;-69
2020/12/21 04:25:22;;;;;;;6.97;4.83;;;21.30;47.50;;;;;;5113188;28;20438;-70
2020/12/21 04:27:48;;;;;;;5.00;4.50;;;21.30;47.50;;;;;;5112833;28;20189;-70
2020/12/21 04:30:14;;;;;;;5.23;4.73;;;21.30;47.50;;;;;;5111722;28;20169;-70
2020/12/21 04:32:39;;;;;;;6.10;5.13;;;21.30;47.60;;;;;;5111488;28;20189;-69
2020/12/21 04:35:05;;;;;;;5.23;4.67;;;21.30;47.70;;;;;;5112890;28;20195;-70
2020/12/21 04:37:32;;;;;;;6.13;4.80;;;21.30;47.60;;;;;;5115635;28;20657;-70
2020/12/21 04:39:58;;;;;;;6.10;4.80;;;21.30;47.70;;;;;;5116510;28;20662;-69
2020/12/21 04:42:24;;;;;;;6.50;5.20;;;21.30;47.60;;;;;;5116377;28;20427;-69
2020/12/21 04:44:51;;;;;;;5.40;4.90;;;21.30;47.60;;;;;;5116723;28;20169;-70
2020/12/21 04:47:18;;;;;;;4.90;4.40;;;21.30;47.60;;;;;;5116460;28;20511;-70
2020/12/21 04:49:45;;;;;;;6.90;5.50;;;21.30;47.50;;;;;;5116294;28;20403;-70
2020/12/21 04:52:12;;;;;;;5.07;4.63;;;21.30;47.50;;;;;;5116402;28;20795;-70
2020/12/21 04:54:37;;;;;;;6.33;4.97;;;21.30;47.50;;;;;;5116264;28;20444;-70
2020/12/21 04:57:03;;;;;;;5.87;5.00;;;21.30;47.50;;;;;;5116200;28;20414;-70
2020/12/21 04:59:29;;;;;;;5.20;4.70;;;21.30;47.50;;;;;;5116370;28;20585;-69
2020/12/21 05:01:55;;;;;;;5.77;5.17;;;21.20;47.50;;;;;;5115994;28;20169;-69
2020/12/21 05:04:25;;;;;;;5.13;4.63;;;21.20;47.60;;;;;;5115953;28;20188;-70
2020/12/21 05:06:56;;;;;;;6.40;4.63;;;21.30;47.60;;;;;;5115912;28;20456;-70
2020/12/21 05:09:22;;;;;;;5.33;4.83;;;21.20;47.60;;;;;;5114697;28;20415;-70
2020/12/21 05:11:56;;;;;;;5.13;4.50;;;21.20;47.60;;;;;;5116178;28;20407;-70
2020/12/21 05:14:35;;;;;;;6.03;4.90;;;21.20;47.50;;;;;;5115938;28;20433;-70
2020/12/21 05:17:13;;;;;;;5.40;4.80;;;21.20;47.60;;;;;;5116406;28;20387;-70
2020/12/21 05:19:39;;;;;;;5.07;4.57;;;21.20;47.60;;;;;;5116033;28;20964;-70
2020/12/21 05:22:15;;;;;;;4.97;4.50;;;21.20;47.70;;;;;;5115936;28;20414;-69
2020/12/21 05:24:42;;;;;;;4.70;4.30;;;21.20;47.70;;;;;;5115643;28;20403;-69
2020/12/21 05:27:10;;;;;;;5.47;4.97;;;21.10;47.60;;;;;;5115539;28;20960;-69
2020/12/21 05:29:36;;;;;;;6.50;4.90;;;21.10;47.60;;;;;;5115638;28;20399;-70
2020/12/21 05:32:02;;;;;;;6.20;5.07;;;21.10;47.60;;;;;;5115450;28;20398;-68
2020/12/21 05:34:28;;;;;;;6.30;5.30;;;21.10;47.60;;;;;;5115487;28;20613;-69
2020/12/21 05:36:54;;;;;;;5.27;4.53;;;21.10;47.50;;;;;;5115398;28;20403;-69
2020/12/21 05:39:20;;;;;;;4.70;4.20;;;21.10;47.50;;;;;;5115428;28;20219;-70
2020/12/21 05:41:46;;;;;;;5.50;4.97;;;21.10;47.60;;;;;;5115661;28;20176;-69
2020/12/21 05:44:11;;;;;;;5.50;4.50;;;21.10;47.70;;;;;;5115172;28;20423;-68
2020/12/21 05:46:37;;;;;;;5.30;4.63;;;21.10;47.70;;;;;;5115094;28;20193;-70
2020/12/21 05:49:03;;;;;;;4.67;4.27;;;21.10;47.70;;;;;;5115148;28;20173;-69
2020/12/21 05:51:34;;;;;;;7.30;4.87;;;21.10;47.80;;;;;;5115451;28;20225;-70
2020/12/21 05:54:02;;;;;;;5.27;4.77;;;21.10;47.80;;;;;;5113615;28;20435;-70
2020/12/21 05:56:36;;;;;;;4.10;3.67;;;21.10;47.90;;;;;;5115120;28;20493;-69
2020/12/21 05:59:02;;;;;;;4.57;4.17;;;21.10;48.00;;;;;;5115045;28;20763;-70
2020/12/21 06:01:28;;;;;;;5.20;4.70;;;21.10;48.00;;;;;;5114889;28;20931;-68
2020/12/21 06:04:01;;;;;;;4.73;4.30;;;21.10;48.00;;;;;;5114892;28;20450;-70
2020/12/21 06:06:29;;;;;;;4.67;4.03;;;21.10;48.00;;;;;;5115112;28;20850;-70
2020/12/21 06:08:57;;;;;;;4.30;3.83;;;21.10;48.00;;;;;;5114862;28;20481;-70
2020/12/21 06:11:29;;;;;;;4.37;3.97;;;21.20;48.10;;;;;;5114758;28;20788;-70
2020/12/21 06:13:55;;;;;;;4.70;4.20;;;21.20;48.00;;;;;;5114662;28;20415;-70
2020/12/21 06:16:23;;;;;;;4.83;4.33;;;21.10;47.90;;;;;;5114694;28;20482;-69
2020/12/21 06:18:57;;;;;;;4.40;4.00;;;21.20;48.00;;;;;;5114605;28;20407;-70
2020/12/21 06:21:25;;;;;;;4.80;4.10;;;21.20;48.00;;;;;;5113172;28;20511;-69
2020/12/21 06:23:50;;;;;;;4.87;4.37;;;21.20;48.00;;;;;;5114432;28;21050;-69
2020/12/21 06:26:16;;;;;;;4.80;4.30;;;21.20;47.90;;;;;;5114380;28;20486;-69
2020/12/21 06:28:41;;;;;;;4.50;4.10;;;21.20;47.90;;;;;;5114405;28;20161;-69
2020/12/21 06:31:19;;;;;;;4.80;4.30;;;21.20;48.00;;;;;;5114382;28;20173;-69
2020/12/21 06:33:47;;;;;;;4.17;3.77;;;21.30;48.00;;;;;;5114163;28;20192;-68
2020/12/21 06:36:13;;;;;;;5.00;3.70;;;21.30;48.30;;;;;;5114550;28;20398;-70
2020/12/21 06:38:47;;;;;;;4.03;3.60;;;21.30;48.60;;;;;;5114130;28;20453;-70
2020/12/21 06:41:14;;;;;;;5.67;4.17;;;21.30;48.70;;;;;;5112912;28;20977;-70
2020/12/21 06:43:40;;;;;;;5.63;4.13;;;21.30;48.70;;;;;;5113908;28;20559;-69
2020/12/21 06:46:14;;;;;;;4.70;4.30;;;21.40;48.70;;;;;;5114063;28;20497;-69
2020/12/21 06:48:40;;;;;;;4.73;4.00;;;21.40;48.50;;;;;;5113996;28;20152;-68
2020/12/21 06:51:17;;;;;;;4.70;4.30;;;21.40;48.50;;;;;;5112689;28;20435;-68
2020/12/21 06:53:59;;;;;;;4.40;4.00;;;21.50;48.40;;;;;;5113925;28;20279;-69
2020/12/21 06:56:26;;;;;;;4.20;3.80;;;21.50;48.30;;;;;;5113792;28;20375;-68
2020/12/21 06:58:53;;;;;;;4.00;3.60;;;21.50;48.30;;;;;;5113353;28;20399;-69
2020/12/21 07:01:20;;;;;;;4.10;3.70;;;21.50;48.30;;;;;;5112263;28;20951;-68
2020/12/21 07:03:47;;;;;;;4.23;3.77;;;21.50;48.30;;;;;;5113504;28;20435;-67
2020/12/21 07:06:13;;;;;;;4.50;3.87;;;21.50;48.20;;;;;;5114009;28;20766;-69
2020/12/21 07:08:38;;;;;;;4.50;4.10;;;21.50;48.10;;;;;;5113969;27;20395;-69
2020/12/21 07:11:04;;;;;;;5.20;4.03;;;21.50;48.10;;;;;;5113645;28;20738;-68
2020/12/21 07:13:32;;;;;;;4.40;4.00;;;21.50;48.10;;;;;;5113616;28;20558;-69
2020/12/21 07:16:00;;;;;;;4.20;3.80;;;21.50;48.00;;;;;;5113617;28;20720;-68
2020/12/21 07:18:26;;;;;;;4.20;3.60;;;21.50;48.00;;;;;;5113907;28;20413;-67
2020/12/21 07:20:53;;;;;;;4.80;4.40;;;21.50;47.90;;;;;;5113640;28;20482;-69
2020/12/21 07:23:19;;;;;;;5.07;4.40;;;21.50;47.70;;;;;;5113475;28;20279;-69
2020/12/21 07:25:51;;;;;;;4.97;4.47;;;21.50;47.70;;;;;;5113570;28;20597;-69
2020/12/21 07:28:26;;;;;;;7.07;5.10;;;21.50;47.50;;;;;;5113703;28;20211;-69
2020/12/21 07:30:51;;;;;;;6.40;5.33;;;21.40;46.80;;;;;;5113730;28;20405;-69
2020/12/21 07:33:17;;;;;;;5.77;5.13;;;21.20;47.00;;;;;;5113346;28;20427;-68
2020/12/21 07:35:43;;;;;;;6.23;5.63;;;21.20;47.30;;;;;;5113475;28;20536;-68
2020/12/21 07:38:13;;;;;;;7.70;5.53;;;21.00;46.10;;;;;;5113410;28;20443;-68
2020/12/21 07:40:42;;;;;;;5.70;5.00;;;21.00;46.80;;;;;;5113527;28;20439;-69
2020/12/21 07:43:17;;;;;;;6.43;5.40;;;21.00;46.70;;;;;;5113722;28;20415;-68
2020/12/21 07:45:45;;;;;;;5.77;4.70;;;21.00;47.10;;;;;;5113648;28;20391;-68
2020/12/21 07:48:12;;;;;;;5.70;4.93;;;21.00;47.00;;;;;;5113286;28;20809;-68
2020/12/21 07:50:40;;;;;;;5.73;4.97;;;21.10;47.20;;;;;;5113265;28;20799;-69
2020/12/21 07:53:06;;;;;;;5.13;4.63;;;21.10;47.30;;;;;;5113164;28;20450;-69
2020/12/21 07:55:31;;;;;;;8.50;5.03;;;21.10;47.30;;;;;;5113252;28;20411;-69
2020/12/21 07:57:58;;;;;;;5.60;4.73;;;21.10;47.20;;;;;;5113755;28;20760;-68
2020/12/21 08:00:23;;;;;;;5.40;4.90;;;21.10;47.20;;;;;;5113288;28;20176;-68
2020/12/21 08:02:53;;;;;;;5.00;4.60;;;21.20;47.30;;;;;;5113270;28;20419;-68
2020/12/21 08:05:19;;;;;;;5.63;5.03;;;21.20;47.30;;;;;;5113076;28;20185;-69
2020/12/21 08:07:45;;;;;;;6.00;5.50;;;21.20;47.30;;;;;;5113053;28;20507;-69
2020/12/21 08:10:19;;;;;;;6.87;5.07;;;21.20;47.40;;;;;;5113123;28;20939;-68
2020/12/21 08:12:44;;;;;;;6.20;4.80;;;21.20;47.20;;;;;;5116603;28;20418;-67
2020/12/21 08:15:10;;;;;;;6.50;4.70;;;21.20;47.40;;;;;;5117037;28;20403;-69
2020/12/21 08:17:35;;;;;;;6.67;4.53;;;21.20;47.30;;;;;;5117210;28;20639;-68
2020/12/21 08:20:07;;;;;;;6.13;5.53;;;21.20;47.30;;;;;;5116983;28;20218;-69
2020/12/21 08:22:36;;;;;;;5.33;4.53;;;21.20;47.20;;;;;;5116908;28;20216;-68
2020/12/21 08:25:09;;;;;;;5.30;4.63;;;21.20;47.10;;;;;;5116883;28;20402;-68
2020/12/21 08:27:34;;;;;;;4.97;4.50;;;21.30;47.30;;;;;;5117109;28;20467;-68
2020/12/21 08:30:18;;;;;;;5.00;4.53;;;21.30;47.30;;;;;;5115288;28;20433;-69
2020/12/21 08:32:43;;;;;;;6.57;4.43;;;21.30;47.40;;;;;;5116697;28;20185;-68
2020/12/21 08:35:10;;;;;;;6.13;4.23;;;21.30;47.30;;;;;;5116627;28;20463;-68
2020/12/21 08:37:37;;;;;;;7.40;6.10;;;21.30;47.30;;;;;;5116519;28;20180;-68
2020/12/21 08:40:15;;;;;;;5.90;4.70;;;21.30;47.10;;;;;;5116432;28;20407;-68
2020/12/21 08:42:42;;;;;;;4.70;4.20;;;21.30;47.20;;;;;;5116480;28;20958;-70
2020/12/21 08:45:09;;;;;;;4.40;3.97;;;21.40;47.50;;;;;;5116397;28;20403;-73
2020/12/21 08:47:35;;;;;;;6.37;5.63;;;21.30;47.50;;;;;;5116528;28;20893;-71
2020/12/21 08:50:03;;;;;;;5.80;4.97;;;21.30;46.80;;;;;;5116281;28;20411;-70
2020/12/21 08:52:28;;;;;;;7.33;5.63;;;21.30;47.20;;;;;;5116154;28;20423;-68
2020/12/21 08:54:54;;;;;;;5.77;5.17;;;21.30;47.60;;;;;;5116239;28;20418;-71
2020/12/21 08:57:20;;;;;;;6.40;4.97;;;21.30;47.00;;;;;;5116172;28;20153;-69
2020/12/21 08:59:45;;;;;;;7.27;5.03;;;21.30;47.10;;;;;;5116154;28;20165;-70
2020/12/21 09:02:11;;;;;;;5.30;4.80;;;21.30;47.40;;;;;;5116134;28;20197;-70
2020/12/21 09:04:37;;;;;;;4.43;3.90;;;21.30;47.50;;;;;;5116095;28;20220;-68
2020/12/21 09:07:02;;;;;;;13.70;5.37;;;21.30;47.60;;;;;;5115870;28;20196;-68
2020/12/21 09:09:28;;;;;;;5.07;4.50;;;21.30;47.50;;;;;;5116049;28;20181;-69
2020/12/21 09:11:55;;;;;;;7.23;5.37;;;21.30;47.50;;;;;;5115928;28;20166;-67
2020/12/21 09:14:24;;;;;;;5.07;3.83;;;21.40;47.60;;;;;;5115978;28;20571;-67
2020/12/21 09:16:50;;;;;;;5.30;4.37;;;21.40;47.70;;;;;;5115851;28;20403;-69
2020/12/21 09:19:16;;;;;;;6.87;4.67;;;21.40;47.70;;;;;;5115997;28;20482;-69
2020/12/21 09:21:41;;;;;;;4.77;4.23;;;21.40;47.70;;;;;;5115135;28;20457;-68
2020/12/21 09:24:07;;;;;;;5.70;5.10;;;21.40;47.70;;;;;;5115895;28;20185;-69
2020/12/21 09:26:33;;;;;;;5.33;4.50;;;21.40;47.60;;;;;;5115518;28;20205;-69
2020/12/21 09:28:58;;;;;;;6.60;4.80;;;21.40;47.60;;;;;;5115628;28;20160;-69
2020/12/21 09:31:24;;;;;;;5.07;4.57;;;21.40;47.60;;;;;;5115506;28;20639;-72
2020/12/21 09:33:50;;;;;;;5.30;4.80;;;21.40;48.10;;;;;;5114122;28;20658;-69
2020/12/21 09:36:17;;;;;;;6.43;5.00;;;21.40;47.60;;;;;;5115454;28;20662;-68
2020/12/21 09:38:44;;;;;;;5.87;4.53;;;21.40;47.50;;;;;;5115473;28;20414;-68
2020/12/21 09:41:15;;;;;;;7.37;4.97;;;21.40;47.40;;;;;;5114778;28;20410;-67
2020/12/21 09:43:42;;;;;;;8.17;5.23;;;21.40;47.50;;;;;;5114694;28;20786;-68
2020/12/21 09:46:08;;;;;;;11.80;5.70;;;21.50;47.90;;;;;;5115256;28;20486;-66
2020/12/21 09:48:34;;;;;;;10.83;5.60;;;21.40;48.00;;;;;;5115251;28;20517;-67
2020/12/21 09:50:59;;;;;;;8.23;6.13;;;21.50;47.80;;;;;;5115215;28;20173;-67
2020/12/21 09:53:25;;;;;;;10.47;5.07;;;21.50;47.60;;;;;;5115074;28;20189;-66
2020/12/21 09:55:51;;;;;;;6.67;4.43;;;21.60;47.60;;;;;;5115352;28;20208;-66
2020/12/21 09:58:17;;;;;;;5.00;4.20;;;21.60;47.70;;;;;;5115072;28;20165;-67
2020/12/21 10:00:43;;;;;;;5.90;4.50;;;21.60;47.80;;;;;;5114973;28;20161;-67
2020/12/21 10:03:09;;;;;;;5.23;4.30;;;21.60;47.80;;;;;;5114578;28;20426;-69
2020/12/21 10:05:34;;;;;;;4.50;4.10;;;21.70;47.90;;;;;;5113526;28;20192;-67
2020/12/21 10:08:00;;;;;;;6.37;4.13;;;21.70;47.90;;;;;;5114625;28;20193;-67
2020/12/21 10:10:26;;;;;;;5.27;4.10;;;21.70;47.90;;;;;;5114858;28;20196;-67
2020/12/21 10:12:51;;;;;;;4.70;3.90;;;21.70;48.00;;;;;;5114520;28;20221;-67
2020/12/21 10:15:17;;;;;;;5.83;4.03;;;21.80;48.10;;;;;;5114650;28;20195;-67
2020/12/21 10:17:43;;;;;;;4.03;3.63;;;21.80;48.10;;;;;;5114650;28;20234;-66
2020/12/21 10:20:09;;;;;;;7.00;4.37;;;21.80;48.10;;;;;;5114577;28;20396;-67
2020/12/21 10:22:34;;;;;;;6.80;4.20;;;21.80;48.10;;;;;;5114498;28;20189;-67
2020/12/21 10:25:00;;;;;;;5.83;4.17;;;21.90;48.10;;;;;;5114469;28;20165;-68
2020/12/21 10:27:27;;;;;;;5.23;4.47;;;21.90;48.20;;;;;;5114436;28;20196;-68
2020/12/21 10:29:54;;;;;;;5.00;3.80;;;21.90;48.20;;;;;;5113488;28;20563;-67
2020/12/21 10:32:19;;;;;;;4.13;3.73;;;21.90;48.20;;;;;;5114532;28;20423;-67
2020/12/21 10:34:45;;;;;;;4.20;3.80;;;22.00;48.20;;;;;;5113525;28;20169;-67
2020/12/21 10:37:11;;;;;;;5.47;4.13;;;22.00;48.30;;;;;;5114371;28;20181;-67
2020/12/21 10:39:36;;;;;;;4.07;3.70;;;22.00;48.30;;;;;;5114543;28;20179;-67
2020/12/21 10:42:06;;;;;;;4.10;3.70;;;22.00;48.30;;;;;;5114075;28;20593;-66
2020/12/21 10:44:31;;;;;;;3.90;3.60;;;22.10;48.40;;;;;;5114176;28;20177;-67
2020/12/21 10:46:58;;;;;;;5.40;3.70;;;22.00;48.30;;;;;;5114130;28;20458;-67
2020/12/21 10:49:24;;;;;;;5.03;3.97;;;22.10;48.40;;;;;;5113522;28;20170;-68
2020/12/21 10:51:49;;;;;;;4.33;3.70;;;22.10;48.40;;;;;;5111976;28;20905;-66
2020/12/21 10:54:15;;;;;;;4.83;3.63;;;22.10;48.40;;;;;;5111881;28;20245;-66
2020/12/21 10:56:40;;;;;;;6.33;3.40;;;22.10;48.40;;;;;;5111797;28;20264;-67
2020/12/21 10:59:06;;;;;;;5.33;3.57;;;22.10;48.40;;;;;;5111825;28;20177;-66
2020/12/21 11:01:32;;;;;;;5.73;3.87;;;22.10;48.40;;;;;;5111527;28;20177;-70
2020/12/21 11:03:57;;;;;;;4.60;4.10;;;22.10;48.10;;;;;;5111101;28;20659;-69
2020/12/21 11:06:24;;;;;;;5.13;3.73;;;22.10;48.50;;;;;;5113766;28;20240;-68
2020/12/21 11:08:52;;;;;;;4.53;3.77;;;22.10;48.40;;;;;;5113763;28;20165;-67
2020/12/21 11:11:28;;;;;;;3.97;3.57;;;22.10;48.50;;;;;;5114150;28;20539;-68
2020/12/21 11:13:54;;;;;;;5.27;3.60;;;22.20;48.60;;;;;;5113793;28;20433;-69
2020/12/21 11:16:20;;;;;;;4.80;3.60;;;22.20;48.60;;;;;;5113791;28;20392;-70
2020/12/21 11:18:46;;;;;;;4.63;3.53;;;22.20;48.70;;;;;;5112627;28;20399;-69
2020/12/21 11:21:13;;;;;;;5.13;3.37;;;22.20;48.70;;;;;;5113610;28;20407;-69
2020/12/21 11:23:39;;;;;;;4.83;3.70;;;22.20;48.70;;;;;;5113610;28;20564;-67
2020/12/21 11:26:05;;;;;;;4.43;3.40;;;22.20;48.70;;;;;;5113538;28;20505;-69
2020/12/21 11:28:30;;;;;;;5.53;4.40;;;22.20;48.70;;;;;;5112867;28;20903;-69
2020/12/21 11:30:56;;;;;;;6.57;4.13;;;22.20;48.70;;;;;;5112556;28;20221;-69
2020/12/21 11:33:22;;;;;;;6.17;3.70;;;22.20;48.70;;;;;;5111335;28;20249;-70
2020/12/21 11:35:47;;;;;;;7.00;3.80;;;22.20;48.80;;;;;;5111464;28;20213;-70
2020/12/21 11:38:15;;;;;;;4.33;3.53;;;22.20;49.10;;;;;;5110682;28;20195;-69
2020/12/21 11:40:41;;;;;;;6.60;4.23;;;22.20;48.80;;;;;;5111533;28;20302;-70
2020/12/21 11:43:07;;;;;;;5.27;3.93;;;22.20;48.80;;;;;;5111777;28;20952;-69
2020/12/21 11:45:32;;;;;;;6.47;5.27;;;22.20;48.90;;;;;;5113376;28;20411;-70
2020/12/21 11:47:58;;;;;;;6.13;4.10;;;22.20;48.90;;;;;;5116640;28;20616;-69
2020/12/21 11:50:23;;;;;;;6.17;3.73;;;22.20;48.90;;;;;;5117824;28;20173;-69
2020/12/21 11:52:49;;;;;;;4.53;3.90;;;22.20;48.90;;;;;;5117439;28;20578;-68
2020/12/21 11:55:15;;;;;;;5.97;3.83;;;22.20;49.00;;;;;;5117430;28;20169;-69
2020/12/21 11:57:40;;;;;;;5.53;3.90;;;22.20;49.00;;;;;;5117409;28;20194;-69
2020/12/21 12:00:06;;;;;;;5.50;3.83;;;22.20;49.00;;;;;;5117459;28;20217;-70
2020/12/21 12:02:31;;;;;;;4.53;4.03;;;22.10;49.00;;;;;;5117240;28;20596;-69
2020/12/21 12:04:57;;;;;;;6.93;3.60;;;22.20;49.10;;;;;;5117525;28;20196;-69
2020/12/21 12:07:23;;;;;;;8.00;4.57;;;22.10;49.00;;;;;;5117193;28;20313;-68
2020/12/21 12:09:48;;;;;;;5.10;4.00;;;22.20;49.20;;;;;;5117177;28;20206;-69
2020/12/21 12:12:14;;;;;;;5.43;3.60;;;22.20;49.20;;;;;;5117036;28;20239;-69
2020/12/21 12:14:39;;;;;;;7.23;3.77;;;22.10;49.20;;;;;;5117121;28;20203;-69
2020/12/21 12:17:05;;;;;;;5.33;3.43;;;22.20;49.20;;;;;;5117023;28;20173;-70
2020/12/21 12:19:31;;;;;;;5.13;4.00;;;22.10;49.20;;;;;;5116928;28;20173;-69
2020/12/21 12:21:56;;;;;;;5.80;3.77;;;22.10;49.20;;;;;;5117170;28;20165;-69
2020/12/21 12:24:22;;;;;;;6.20;3.57;;;22.20;49.30;;;;;;5117199;28;20172;-69
2020/12/21 12:26:52;;;;;;;6.83;3.50;;;22.10;49.30;;;;;;5117026;28;20203;-70
2020/12/21 12:29:19;;;;;;;4.70;3.70;;;22.20;49.40;;;;;;5115559;28;20241;-69
2020/12/21 12:31:45;;;;;;;4.97;3.87;;;22.20;49.40;;;;;;5116761;28;20402;-68
2020/12/21 12:34:10;;;;;;;5.80;4.30;;;22.10;49.40;;;;;;5116638;28;20430;-70
2020/12/21 12:36:36;;;;;;;5.70;4.17;;;22.10;49.40;;;;;;5116921;28;20491;-69
2020/12/21 12:39:04;;;;;;;6.67;3.97;;;22.10;49.40;;;;;;5116597;28;20541;-70
2020/12/21 12:41:30;;;;;;;6.37;3.57;;;22.20;49.40;;;;;;5116590;28;20166;-69
2020/12/21 12:43:55;;;;;;;6.33;4.00;;;22.20;49.50;;;;;;5116427;28;20984;-70